Time;durP1;ratioP1;P1;durP2;ratioP2;P2;SDS_P1;SDS_P2;PMS_P1;PMS_P2;Temp;Humidity;BMP_temperature;BMP_pressure;BME280_temperature;BME280_humidity;BME280_pressure;Samples;Min_cycle;Max_cycle;Signal;HPM_P1;HPM_P2
2022/08/31 00:04:01;;;;;;;30.70;4.85;;;;;;;;;;5012037;28;20037;-53
2022/08/31 00:06:30;;;;;;;30.77;5.25;;;;;;;;;;5008537;28;20124;-50
2022/08/31 00:08:57;;;;;;;24.08;5.10;;;;;;;;;;5002070;28;20196;-50
2022/08/31 00:11:29;;;;;;;31.40;5.07;;;;;;;;;;5007787;28;20103;-46
2022/08/31 00:13:57;;;;;;;24.90;5.03;;;;;;;;;;5010673;28;20092;-47
2022/08/31 00:16:25;;;;;;;25.80;4.97;;;;;;;;;;5008096;28;20058;-45
2022/08/31 00:18:53;;;;;;;27.75;5.15;;;;;;;;;;5008317;28;20034;-48
2022/08/31 00:21:21;;;;;;;30.35;4.40;;;;;;;;;;4895351;28;3378467;-51
2022/08/31 00:23:48;;;;;;;29.83;4.72;;;;;;;;;;5009930;28;20022;-55
2022/08/31 00:26:16;;;;;;;29.60;4.85;;;;;;;;;;5009006;28;20478;-51
2022/08/31 00:28:43;;;;;;;35.40;7.22;;;;;;;;;;4994905;28;20044;-50
2022/08/31 00:31:10;;;;;;;43.72;10.82;;;;;;;;;;5008540;28;20033;-46
2022/08/31 00:33:38;;;;;;;93.65;22.88;;;;;;;;;;4983050;28;20043;-44
2022/08/31 00:36:07;;;;;;;82.40;23.27;;;;;;;;;;4987506;28;20022;-49
2022/08/31 00:38:34;;;;;;;87.57;25.65;;;;;;;;;;5002059;28;20082;-48
2022/08/31 00:41:01;;;;;;;114.43;29.67;;;;;;;;;;4972971;28;20027;-47
2022/08/31 00:43:34;;;;;;;95.45;28.10;;;;;;;;;;4981976;28;20145;-44
2022/08/31 00:46:01;;;;;;;108.57;30.92;;;;;;;;;;4973446;28;20027;-48
2022/08/31 00:48:28;;;;;;;133.30;42.38;;;;;;;;;;4996668;28;20038;-47
2022/08/31 00:50:56;;;;;;;137.07;40.53;;;;;;;;;;4993564;28;20038;-48
2022/08/31 00:53:23;;;;;;;140.25;43.90;;;;;;;;;;4993769;28;20074;-49
2022/08/31 00:55:50;;;;;;;151.25;44.60;;;;;;;;;;4991755;28;20076;-45
2022/08/31 00:58:17;;;;;;;143.52;44.40;;;;;;;;;;4974301;28;20039;-47
2022/08/31 01:00:46;;;;;;;135.20;41.33;;;;;;;;;;4984436;28;20041;-46
2022/08/31 01:03:13;;;;;;;126.50;39.58;;;;;;;;;;4993490;28;20038;-46
2022/08/31 01:05:40;;;;;;;122.70;38.47;;;;;;;;;;4993793;28;20034;-46
2022/08/31 01:08:07;;;;;;;140.38;40.53;;;;;;;;;;4993164;28;20488;-46
2022/08/31 01:10:37;;;;;;;131.35;36.45;;;;;;;;;;4990419;28;20050;-47
2022/08/31 01:13:04;;;;;;;169.38;41.13;;;;;;;;;;4979957;28;20039;-46
2022/08/31 01:15:31;;;;;;;135.93;38.95;;;;;;;;;;4974331;28;20018;-49
2022/08/31 01:18:01;;;;;;;130.02;38.78;;;;;;;;;;4976573;28;20039;-48
2022/08/31 01:20:32;;;;;;;132.60;35.92;;;;;;;;;;4956771;28;20057;-45
2022/08/31 01:23:04;;;;;;;132.45;36.90;;;;;;;;;;4978605;28;20038;-47
2022/08/31 01:25:32;;;;;;;121.05;35.40;;;;;;;;;;4975963;28;20429;-46
2022/08/31 01:28:01;;;;;;;121.00;32.97;;;;;;;;;;4979790;28;20040;-49
2022/08/31 01:30:28;;;;;;;114.15;33.42;;;;;;;;;;5012212;28;20065;-47
2022/08/31 01:32:55;;;;;;;111.90;31.08;;;;;;;;;;4996619;28;20030;-47
2022/08/31 01:35:22;;;;;;;99.40;30.30;;;;;;;;;;5012112;28;20030;-52
2022/08/31 01:37:49;;;;;;;103.10;29.95;;;;;;;;;;5003339;28;20033;-47
2022/08/31 01:40:16;;;;;;;94.50;28.70;;;;;;;;;;5005021;28;20445;-45
2022/08/31 01:42:43;;;;;;;87.03;27.33;;;;;;;;;;5005881;28;20090;-46
2022/08/31 01:45:11;;;;;;;100.57;26.05;;;;;;;;;;4999867;28;20027;-49
2022/08/31 01:47:38;;;;;;;91.13;25.17;;;;;;;;;;5009515;28;20061;-47
2022/08/31 01:50:06;;;;;;;85.18;24.73;;;;;;;;;;5010471;28;20034;-51
2022/08/31 01:52:33;;;;;;;77.78;22.67;;;;;;;;;;5011199;28;20038;-48
2022/08/31 01:55:02;;;;;;;78.07;22.38;;;;;;;;;;4988635;28;20041;-51
2022/08/31 01:57:29;;;;;;;69.10;19.60;;;;;;;;;;5007904;28;20069;-55
2022/08/31 01:59:56;;;;;;;76.90;20.52;;;;;;;;;;4991876;28;20026;-58
2022/08/31 02:02:23;;;;;;;64.45;20.92;;;;;;;;;;5006460;28;20038;-59
2022/08/31 02:04:50;;;;;;;67.22;20.05;;;;;;;;;;5011982;28;20030;-57
2022/08/31 02:07:17;;;;;;;62.85;19.73;;;;;;;;;;5011925;28;20026;-58
2022/08/31 02:09:44;;;;;;;64.53;18.90;;;;;;;;;;5006381;28;20026;-57
2022/08/31 02:12:11;;;;;;;69.95;19.92;;;;;;;;;;5005767;28;20530;-57
2022/08/31 02:14:38;;;;;;;59.42;18.35;;;;;;;;;;4994464;28;20034;-58
2022/08/31 02:17:05;;;;;;;60.60;17.98;;;;;;;;;;4996239;28;20035;-58
2022/08/31 02:19:32;;;;;;;55.38;17.52;;;;;;;;;;4987567;28;20030;-59
2022/08/31 02:21:59;;;;;;;62.50;17.00;;;;;;;;;;4977276;28;20492;-58
2022/08/31 02:24:26;;;;;;;61.45;18.65;;;;;;;;;;4989891;28;20089;-57
2022/08/31 02:26:53;;;;;;;59.05;16.98;;;;;;;;;;4993293;28;20039;-58
2022/08/31 02:29:20;;;;;;;56.78;16.75;;;;;;;;;;4993314;28;20037;-56
2022/08/31 02:31:47;;;;;;;50.38;16.88;;;;;;;;;;4993520;28;20444;-59
2022/08/31 02:34:16;;;;;;;57.50;17.58;;;;;;;;;;4985820;28;20069;-59
2022/08/31 02:36:44;;;;;;;52.63;16.48;;;;;;;;;;4987125;28;20374;-59
2022/08/31 02:39:11;;;;;;;49.92;14.82;;;;;;;;;;4984891;28;20035;-59
2022/08/31 02:41:38;;;;;;;49.92;15.98;;;;;;;;;;4986687;28;20049;-58
2022/08/31 02:44:05;;;;;;;48.75;15.90;;;;;;;;;;4985572;28;20065;-59
2022/08/31 02:46:33;;;;;;;46.65;14.52;;;;;;;;;;4993616;28;20026;-56
2022/08/31 02:49:00;;;;;;;44.45;14.25;;;;;;;;;;4996519;28;20079;-57
2022/08/31 02:51:27;;;;;;;41.60;13.60;;;;;;;;;;4996438;28;20030;-59
2022/08/31 02:53:54;;;;;;;44.58;13.50;;;;;;;;;;4996600;28;20034;-59
2022/08/31 02:56:22;;;;;;;42.10;13.90;;;;;;;;;;4996442;28;20519;-58
2022/08/31 02:58:53;;;;;;;38.70;12.68;;;;;;;;;;4996321;28;20544;-58
2022/08/31 03:01:21;;;;;;;39.20;12.95;;;;;;;;;;4996049;28;20026;-59
2022/08/31 03:03:48;;;;;;;35.30;11.60;;;;;;;;;;4996300;28;20038;-58
2022/08/31 03:06:16;;;;;;;38.45;12.07;;;;;;;;;;4996224;28;20038;-59
2022/08/31 03:08:43;;;;;;;33.83;11.57;;;;;;;;;;4996270;28;20038;-58
2022/08/31 03:11:10;;;;;;;37.65;12.35;;;;;;;;;;4996143;28;20034;-58
2022/08/31 03:13:38;;;;;;;40.28;12.27;;;;;;;;;;4996285;28;20057;-59
2022/08/31 03:16:05;;;;;;;30.00;10.48;;;;;;;;;;4978623;28;20374;-59
2022/08/31 03:18:32;;;;;;;29.23;11.35;;;;;;;;;;4996100;28;20026;-59
2022/08/31 03:20:59;;;;;;;32.08;10.77;;;;;;;;;;4995783;28;20053;-59
2022/08/31 03:23:26;;;;;;;32.33;10.30;;;;;;;;;;4995935;28;20027;-58
2022/08/31 03:25:53;;;;;;;27.27;10.05;;;;;;;;;;4995979;28;20050;-59
2022/08/31 03:28:20;;;;;;;27.90;10.18;;;;;;;;;;4995915;28;20033;-58
2022/08/31 03:30:47;;;;;;;29.05;9.70;;;;;;;;;;4995531;28;20530;-59
2022/08/31 03:33:14;;;;;;;30.05;9.93;;;;;;;;;;4995751;28;20105;-58
2022/08/31 03:35:42;;;;;;;29.42;9.32;;;;;;;;;;4995780;28;20056;-59
2022/08/31 03:38:11;;;;;;;23.02;9.05;;;;;;;;;;4995554;28;20038;-58
2022/08/31 03:40:39;;;;;;;29.05;8.73;;;;;;;;;;4995570;28;20031;-59
2022/08/31 03:43:10;;;;;;;24.90;9.00;;;;;;;;;;4995609;28;20069;-57
2022/08/31 03:45:38;;;;;;;25.30;8.48;;;;;;;;;;4995797;28;20100;-58
2022/08/31 03:48:06;;;;;;;20.98;8.38;;;;;;;;;;4995766;28;20026;-59
2022/08/31 03:50:34;;;;;;;21.13;8.30;;;;;;;;;;4995332;28;20038;-58
2022/08/31 03:53:04;;;;;;;22.45;7.80;;;;;;;;;;4995233;28;20045;-58
2022/08/31 03:55:32;;;;;;;20.85;7.85;;;;;;;;;;4995283;28;20489;-58
2022/08/31 03:57:59;;;;;;;25.77;8.32;;;;;;;;;;4995460;28;20523;-59
2022/08/31 04:00:27;;;;;;;23.77;7.60;;;;;;;;;;4977892;28;20034;-58
2022/08/31 04:02:58;;;;;;;19.27;7.43;;;;;;;;;;4995079;28;20034;-56
2022/08/31 04:05:33;;;;;;;20.63;7.35;;;;;;;;;;4995139;28;20038;-58
2022/08/31 04:08:01;;;;;;;16.10;6.75;;;;;;;;;;4995232;28;20528;-58
2022/08/31 04:10:28;;;;;;;17.63;6.82;;;;;;;;;;4995128;28;20030;-59
2022/08/31 04:12:55;;;;;;;20.63;6.47;;;;;;;;;;4995020;28;20026;-58
2022/08/31 04:15:21;;;;;;;20.13;6.78;;;;;;;;;;4995071;28;20080;-59
2022/08/31 04:17:49;;;;;;;19.52;6.80;;;;;;;;;;4995050;28;20034;-58
2022/08/31 04:20:15;;;;;;;19.48;6.68;;;;;;;;;;4994869;28;20129;-59
2022/08/31 04:22:42;;;;;;;14.93;6.28;;;;;;;;;;4994801;28;20503;-58
2022/08/31 04:25:09;;;;;;;18.58;6.07;;;;;;;;;;4994902;28;20026;-59
2022/08/31 04:27:39;;;;;;;18.60;6.03;;;;;;;;;;4994852;28;20022;-59
2022/08/31 04:30:07;;;;;;;17.10;5.53;;;;;;;;;;4994664;28;20088;-56
2022/08/31 04:32:35;;;;;;;15.52;6.35;;;;;;;;;;4994442;28;20459;-59
2022/08/31 04:35:02;;;;;;;16.42;5.70;;;;;;;;;;4994734;28;20469;-58
2022/08/31 04:37:30;;;;;;;13.55;5.25;;;;;;;;;;4994545;28;20030;-59
2022/08/31 04:39:57;;;;;;;16.02;6.25;;;;;;;;;;4994581;28;20081;-58
2022/08/31 04:42:24;;;;;;;13.75;5.50;;;;;;;;;;4993560;28;20046;-57
2022/08/31 04:44:51;;;;;;;14.23;5.65;;;;;;;;;;4994569;28;20041;-58
2022/08/31 04:47:19;;;;;;;13.88;5.45;;;;;;;;;;4994379;28;20030;-56
2022/08/31 04:49:46;;;;;;;13.52;4.65;;;;;;;;;;4994379;28;20089;-59
2022/08/31 04:52:13;;;;;;;13.30;5.22;;;;;;;;;;4994357;28;20042;-58
2022/08/31 04:54:40;;;;;;;15.43;5.10;;;;;;;;;;4994330;28;20030;-58
2022/08/31 04:57:07;;;;;;;13.27;5.10;;;;;;;;;;4994334;28;20034;-58
2022/08/31 04:59:34;;;;;;;12.85;5.03;;;;;;;;;;4994242;28;20631;-59
2022/08/31 05:02:02;;;;;;;11.90;4.65;;;;;;;;;;4994041;28;20026;-58
2022/08/31 05:04:30;;;;;;;9.85;4.38;;;;;;;;;;4994026;28;20042;-58
2022/08/31 05:06:57;;;;;;;12.63;4.68;;;;;;;;;;4994097;28;20050;-58
2022/08/31 05:09:24;;;;;;;12.20;4.93;;;;;;;;;;4993971;28;20096;-58
2022/08/31 05:11:52;;;;;;;9.48;4.07;;;;;;;;;;4993682;28;20053;-59
2022/08/31 05:14:20;;;;;;;10.57;4.10;;;;;;;;;;4993826;28;20026;-58
2022/08/31 05:16:47;;;;;;;13.98;5.13;;;;;;;;;;4993788;28;20062;-58
2022/08/31 05:19:14;;;;;;;12.10;4.10;;;;;;;;;;4993957;28;20026;-58
2022/08/31 05:21:42;;;;;;;10.93;4.10;;;;;;;;;;4993453;28;20420;-59
2022/08/31 05:24:14;;;;;;;10.45;4.05;;;;;;;;;;4993544;28;20441;-58
2022/08/31 05:26:47;;;;;;;11.48;4.07;;;;;;;;;;4993599;28;20034;-56
2022/08/31 05:29:15;;;;;;;8.45;3.42;;;;;;;;;;4993625;28;20495;-59
2022/08/31 05:31:42;;;;;;;12.38;4.35;;;;;;;;;;4993504;28;20492;-58
2022/08/31 05:34:11;;;;;;;10.73;3.50;;;;;;;;;;4976148;28;20433;-58
2022/08/31 05:36:39;;;;;;;9.65;3.80;;;;;;;;;;4993537;28;20031;-57
2022/08/31 05:39:10;;;;;;;9.20;3.80;;;;;;;;;;4993595;28;20038;-57
2022/08/31 05:41:38;;;;;;;8.73;3.45;;;;;;;;;;4993544;28;20039;-59
2022/08/31 05:44:05;;;;;;;8.00;3.17;;;;;;;;;;4993445;28;20129;-58
2022/08/31 05:46:33;;;;;;;8.98;3.35;;;;;;;;;;4993441;28;20026;-59
2022/08/31 05:49:00;;;;;;;8.50;3.65;;;;;;;;;;4993354;28;20035;-59
2022/08/31 05:51:27;;;;;;;8.32;3.22;;;;;;;;;;4993462;28;20026;-57
2022/08/31 05:53:54;;;;;;;6.78;3.10;;;;;;;;;;4993223;28;20122;-57
2022/08/31 05:56:23;;;;;;;7.53;3.20;;;;;;;;;;4993449;28;20034;-58
2022/08/31 05:58:50;;;;;;;8.10;3.25;;;;;;;;;;4993258;28;20037;-57
2022/08/31 06:01:22;;;;;;;5.90;2.90;;;;;;;;;;4991495;28;20034;-58
2022/08/31 06:03:49;;;;;;;6.03;2.73;;;;;;;;;;4993043;28;20044;-57
2022/08/31 06:06:16;;;;;;;9.10;2.70;;;;;;;;;;4993146;28;20396;-58
2022/08/31 06:08:44;;;;;;;4.85;2.50;;;;;;;;;;4993264;28;20025;-58
2022/08/31 06:11:16;;;;;;;6.35;2.80;;;;;;;;;;4993079;28;20030;-58
2022/08/31 06:13:43;;;;;;;10.27;3.15;;;;;;;;;;4993030;28;20038;-57
2022/08/31 06:16:10;;;;;;;6.28;2.70;;;;;;;;;;4993139;28;20022;-57
2022/08/31 06:18:39;;;;;;;5.93;2.63;;;;;;;;;;4993049;28;20034;-59
2022/08/31 06:21:11;;;;;;;6.90;2.70;;;;;;;;;;4992756;28;20058;-56
2022/08/31 06:23:41;;;;;;;6.70;2.90;;;;;;;;;;4992984;28;20516;-59
2022/08/31 06:26:15;;;;;;;7.70;2.75;;;;;;;;;;4992942;28;20704;-58
2022/08/31 06:28:43;;;;;;;7.95;2.60;;;;;;;;;;4993098;28;20023;-58
2022/08/31 06:31:15;;;;;;;5.82;2.38;;;;;;;;;;4992845;28;20374;-59
2022/08/31 06:33:42;;;;;;;5.72;2.38;;;;;;;;;;4992949;28;20527;-58
2022/08/31 06:36:13;;;;;;;5.70;2.40;;;;;;;;;;4992844;28;20449;-58
2022/08/31 06:38:42;;;;;;;6.63;2.80;;;;;;;;;;4992994;28;20022;-56
2022/08/31 06:41:20;;;;;;;5.07;2.28;;;;;;;;;;4992758;28;20114;-59
2022/08/31 06:43:47;;;;;;;4.30;2.13;;;;;;;;;;4992750;28;20042;-59
2022/08/31 06:46:14;;;;;;;6.70;2.35;;;;;;;;;;4992855;28;20023;-59
2022/08/31 06:48:42;;;;;;;6.00;2.38;;;;;;;;;;4992895;28;20553;-59
2022/08/31 06:51:09;;;;;;;7.47;2.33;;;;;;;;;;4992701;28;20026;-58
2022/08/31 06:53:39;;;;;;;6.18;2.10;;;;;;;;;;4992766;28;20034;-58
2022/08/31 06:56:10;;;;;;;4.57;2.08;;;;;;;;;;4992696;28;20026;-58
2022/08/31 06:58:37;;;;;;;6.45;2.53;;;;;;;;;;4992787;28;20263;-58
2022/08/31 07:01:27;;;;;;;7.45;2.22;;;;;;;;;;4992940;28;20125;-58
2022/08/31 07:03:55;;;;;;;5.63;2.30;;;;;;;;;;4992696;28;20066;-59
2022/08/31 07:06:29;;;;;;;5.32;2.20;;;;;;;;;;4994558;28;20501;-57
2022/08/31 07:08:59;;;;;;;7.70;2.08;;;;;;;;;;4996308;28;20026;-58
2022/08/31 07:11:33;;;;;;;5.13;2.45;;;;;;;;;;4996070;28;20031;-58
2022/08/31 07:14:02;;;;;;;5.15;1.73;;;;;;;;;;4996151;28;20022;-58
2022/08/31 07:16:29;;;;;;;5.57;2.20;;;;;;;;;;4995999;28;20112;-58
2022/08/31 07:18:58;;;;;;;5.32;2.05;;;;;;;;;;4995946;28;20480;-57
2022/08/31 07:21:29;;;;;;;3.95;1.77;;;;;;;;;;4995783;28;20050;-57
2022/08/31 07:23:57;;;;;;;3.08;1.50;;;;;;;;;;4996068;28;20030;-58
2022/08/31 07:26:29;;;;;;;4.72;1.88;;;;;;;;;;4995985;28;20054;-57
2022/08/31 07:28:57;;;;;;;7.70;2.22;;;;;;;;;;4996040;28;20022;-58
2022/08/31 07:31:25;;;;;;;4.00;1.73;;;;;;;;;;4995762;28;20038;-58
2022/08/31 07:33:54;;;;;;;4.78;1.73;;;;;;;;;;4995850;28;20027;-58
2022/08/31 07:36:22;;;;;;;5.28;2.13;;;;;;;;;;4995746;28;20027;-58
2022/08/31 07:44:21;;;;;;;3.95;1.63;;;;;;;;;;4995994;28;20037;-58
2022/08/31 07:46:49;;;;;;;4.15;1.63;;;;;;;;;;4995635;28;20042;-58
2022/08/31 07:49:17;;;;;;;3.72;1.73;;;;;;;;;;4995493;28;20030;-58
2022/08/31 07:51:49;;;;;;;5.00;1.80;;;;;;;;;;4995273;28;20124;-58
2022/08/31 07:54:20;;;;;;;3.70;1.73;;;;;;;;;;4995589;28;20389;-58
2022/08/31 07:56:50;;;;;;;2.80;1.60;;;;;;;;;;4995225;28;20101;-58
2022/08/31 07:59:18;;;;;;;4.22;1.70;;;;;;;;;;4995431;28;20036;-58
2022/08/31 08:01:46;;;;;;;4.43;1.85;;;;;;;;;;4995108;28;20022;-57
2022/08/31 08:04:17;;;;;;;5.30;1.55;;;;;;;;;;4995242;28;20113;-58
2022/08/31 08:06:44;;;;;;;5.97;1.42;;;;;;;;;;4995226;28;20039;-58
2022/08/31 08:09:11;;;;;;;4.32;1.63;;;;;;;;;;4995144;28;20030;-58
2022/08/31 08:11:43;;;;;;;2.85;1.55;;;;;;;;;;4994984;28;20092;-59
2022/08/31 08:14:11;;;;;;;4.53;1.55;;;;;;;;;;4995373;28;20378;-58
2022/08/31 08:16:38;;;;;;;2.83;1.33;;;;;;;;;;4994599;28;20030;-56
2022/08/31 08:19:05;;;;;;;3.40;1.42;;;;;;;;;;4994448;28;20030;-58
2022/08/31 08:21:32;;;;;;;5.13;1.50;;;;;;;;;;4994542;28;20477;-56
2022/08/31 08:23:59;;;;;;;4.50;1.63;;;;;;;;;;4994898;28;20109;-58
2022/08/31 08:26:26;;;;;;;5.28;2.10;;;;;;;;;;4994815;28;20489;-57
2022/08/31 08:28:53;;;;;;;4.80;1.65;;;;;;;;;;4994610;28;20110;-57
2022/08/31 08:31:23;;;;;;;4.47;1.65;;;;;;;;;;4994692;28;20404;-57
2022/08/31 08:33:51;;;;;;;2.40;1.27;;;;;;;;;;4994738;28;20034;-52
2022/08/31 08:36:19;;;;;;;3.70;1.48;;;;;;;;;;4994603;28;20049;-58
2022/08/31 08:38:49;;;;;;;2.60;1.30;;;;;;;;;;4994495;28;20106;-57
2022/08/31 08:41:24;;;;;;;2.97;1.60;;;;;;;;;;4994490;28;20026;-56
2022/08/31 08:43:55;;;;;;;7.45;1.65;;;;;;;;;;4994507;28;20042;-57
2022/08/31 08:46:42;;;;;;;4.63;1.63;;;;;;;;;;4994396;28;20046;-58
2022/08/31 08:49:17;;;;;;;3.08;1.27;;;;;;;;;;4994295;28;20048;-58
2022/08/31 08:51:45;;;;;;;4.28;1.73;;;;;;;;;;4994330;28;20038;-57
2022/08/31 08:54:15;;;;;;;2.45;1.20;;;;;;;;;;4994332;28;20054;-56
2022/08/31 08:56:49;;;;;;;5.30;1.35;;;;;;;;;;4994496;28;20504;-57
2022/08/31 08:59:16;;;;;;;4.32;1.20;;;;;;;;;;4994245;28;20361;-57
2022/08/31 09:01:46;;;;;;;4.45;1.60;;;;;;;;;;4994074;28;20050;-56
2022/08/31 09:04:15;;;;;;;4.32;1.23;;;;;;;;;;4994052;28;20564;-57
2022/08/31 09:07:06;;;;;;;3.47;1.63;;;;;;;;;;4994047;28;20084;-57
2022/08/31 09:09:37;;;;;;;4.18;1.50;;;;;;;;;;4984206;28;20034;-57
2022/08/31 09:12:29;;;;;;;3.93;1.40;;;;;;;;;;4994015;28;20030;-56
2022/08/31 09:15:00;;;;;;;3.63;1.23;;;;;;;;;;4993871;28;20034;-57
2022/08/31 09:17:27;;;;;;;3.72;1.23;;;;;;;;;;4993756;28;20404;-56
2022/08/31 09:19:58;;;;;;;3.42;1.25;;;;;;;;;;4993623;28;20048;-57
2022/08/31 09:22:29;;;;;;;3.60;1.55;;;;;;;;;;4993650;28;20121;-56
2022/08/31 09:25:02;;;;;;;3.80;1.48;;;;;;;;;;4993810;28;20085;-57
2022/08/31 09:27:38;;;;;;;2.53;1.40;;;;;;;;;;4993932;28;20062;-57
2022/08/31 09:30:06;;;;;;;3.42;1.38;;;;;;;;;;4993508;28;20034;-56
2022/08/31 09:32:35;;;;;;;4.15;1.30;;;;;;;;;;4993484;28;20081;-56
2022/08/31 09:35:02;;;;;;;3.72;1.33;;;;;;;;;;4993693;28;20034;-56
2022/08/31 09:37:44;;;;;;;2.78;1.20;;;;;;;;;;4993558;28;20034;-58
2022/08/31 09:40:17;;;;;;;4.65;1.45;;;;;;;;;;4976106;28;20116;-61
2022/08/31 09:42:46;;;;;;;2.88;1.40;;;;;;;;;;4982632;28;20042;-60
2022/08/31 09:45:28;;;;;;;2.30;1.17;;;;;;;;;;4986506;28;20080;-60
2022/08/31 09:47:59;;;;;;;3.90;1.33;;;;;;;;;;4993159;28;20042;-56
2022/08/31 09:50:32;;;;;;;3.17;1.42;;;;;;;;;;4993272;28;20552;-59
2022/08/31 09:56:04;;;;;;;5.47;1.63;;;;;;;;;;4949417;28;19917;-52
2022/08/31 09:58:33;;;;;;;7.93;1.80;;;;;;;;;;4972509;28;20039;-49
2022/08/31 10:01:11;;;;;;;7.88;1.98;;;;;;;;;;4972680;28;20042;-47
2022/08/31 10:03:46;;;;;;;9.10;1.77;;;;;;;;;;4973293;28;20038;-47
2022/08/31 10:06:42;;;;;;;5.60;1.98;;;;;;;;;;4977395;28;20143;-47
2022/08/31 10:09:18;;;;;;;8.60;1.90;;;;;;;;;;4991578;28;20038;-46
2022/08/31 10:11:46;;;;;;;9.50;1.60;;;;;;;;;;4991570;28;20080;-45
2022/08/31 10:14:19;;;;;;;3.60;1.33;;;;;;;;;;4993072;28;20022;-47
2022/08/31 10:16:50;;;;;;;8.32;1.88;;;;;;;;;;4992953;28;20034;-47
2022/08/31 10:19:29;;;;;;;5.25;1.65;;;;;;;;;;4992233;28;20034;-45
2022/08/31 10:22:09;;;;;;;6.90;1.70;;;;;;;;;;4991738;28;20509;-49
2022/08/31 10:24:42;;;;;;;11.90;2.25;;;;;;;;;;4986901;28;20039;-56
2022/08/31 10:27:12;;;;;;;6.13;1.70;;;;;;;;;;4986672;28;20404;-52
2022/08/31 10:29:46;;;;;;;8.13;1.50;;;;;;;;;;4982565;28;20035;-51
2022/08/31 10:32:22;;;;;;;5.18;1.70;;;;;;;;;;4984299;28;20078;-55
2022/08/31 10:35:07;;;;;;;7.10;1.90;;;;;;;;;;4992397;28;20034;-50
2022/08/31 10:37:37;;;;;;;10.60;2.20;;;;;;;;;;4992595;28;20030;-51
2022/08/31 10:40:07;;;;;;;9.73;1.90;;;;;;;;;;4991237;28;20039;-55
2022/08/31 10:42:36;;;;;;;9.82;1.75;;;;;;;;;;4995249;28;20038;-55
2022/08/31 10:45:11;;;;;;;7.43;1.95;;;;;;;;;;4996294;28;20616;-54
2022/08/31 10:47:43;;;;;;;8.35;1.90;;;;;;;;;;4996583;28;20026;-53
2022/08/31 10:50:15;;;;;;;7.57;2.00;;;;;;;;;;4995965;28;20556;-57
2022/08/31 10:52:52;;;;;;;8.90;2.13;;;;;;;;;;4995599;28;20034;-53
2022/08/31 10:55:29;;;;;;;7.88;2.10;;;;;;;;;;4996466;28;20042;-54
2022/08/31 10:58:18;;;;;;;7.05;1.95;;;;;;;;;;4996579;28;20019;-54
2022/08/31 11:00:57;;;;;;;8.25;1.77;;;;;;;;;;4996565;28;20038;-56
2022/08/31 11:03:27;;;;;;;8.80;2.25;;;;;;;;;;4996107;28;20490;-53
2022/08/31 11:05:57;;;;;;;7.63;2.00;;;;;;;;;;4996193;28;20030;-54
2022/08/31 11:08:48;;;;;;;13.00;2.00;;;;;;;;;;4996358;28;20026;-55
2022/08/31 11:11:24;;;;;;;23.52;2.67;;;;;;;;;;4996116;28;20066;-49
2022/08/31 11:13:59;;;;;;;124.85;10.30;;;;;;;;;;4996332;28;20033;-54
2022/08/31 11:16:44;;;;;;;84.25;7.78;;;;;;;;;;4995926;28;20045;-52
2022/08/31 11:19:29;;;;;;;56.85;6.07;;;;;;;;;;4992182;28;20064;-53
2022/08/31 11:22:05;;;;;;;790.42;76.32;;;;;;;;;;4995963;28;20043;-51
2022/08/31 11:25:02;;;;;;;551.42;57.85;;;;;;;;;;4995677;28;20054;-47
2022/08/31 11:27:49;;;;;;;238.30;20.67;;;;;;;;;;4979348;28;20050;-49
2022/08/31 11:30:23;;;;;;;138.43;14.63;;;;;;;;;;4994821;28;20117;-47
2022/08/31 11:32:54;;;;;;;701.78;87.28;;;;;;;;;;4988846;28;20042;-49
2022/08/31 11:35:39;;;;;;;355.27;43.92;;;;;;;;;;4983442;28;20551;-54
2022/08/31 11:38:09;;;;;;;169.00;22.10;;;;;;;;;;4990822;28;20393;-47
2022/08/31 11:40:42;;;;;;;137.73;17.85;;;;;;;;;;4989192;28;20126;-47
2022/08/31 11:43:13;;;;;;;101.38;12.02;;;;;;;;;;4994552;28;20117;-49
2022/08/31 11:45:45;;;;;;;77.95;8.18;;;;;;;;;;4983671;28;20484;-50
2022/08/31 11:48:32;;;;;;;116.97;13.30;;;;;;;;;;4982989;28;20039;-49
2022/08/31 11:51:03;;;;;;;116.13;13.48;;;;;;;;;;4963012;28;20101;-47
2022/08/31 11:53:33;;;;;;;96.53;12.40;;;;;;;;;;4977397;28;20018;-46
2022/08/31 11:56:02;;;;;;;41.13;6.60;;;;;;;;;;4989987;28;20121;-58
2022/08/31 11:58:33;;;;;;;36.88;5.20;;;;;;;;;;4992492;28;20485;-58
2022/08/31 12:01:08;;;;;;;92.70;11.27;;;;;;;;;;4990853;28;20050;-52
2022/08/31 12:03:52;;;;;;;43.28;6.45;;;;;;;;;;4993810;28;20049;-47
2022/08/31 12:06:28;;;;;;;103.60;11.90;;;;;;;;;;4973831;28;20050;-45
2022/08/31 12:09:15;;;;;;;76.50;9.57;;;;;;;;;;4974732;28;20039;-47
2022/08/31 12:11:51;;;;;;;68.72;9.73;;;;;;;;;;4952184;28;20050;-49
2022/08/31 12:14:56;;;;;;;81.85;10.60;;;;;;;;;;4977247;28;20022;-45
2022/08/31 12:17:26;;;;;;;88.90;11.00;;;;;;;;;;4913555;29;20040;-48
2022/08/31 12:20:11;;;;;;;118.95;14.73;;;;;;;;;;4915662;29;20258;-46
2022/08/31 12:25:40;;;;;;;83.95;11.80;;;;;;;;;;4974488;28;20050;-52
2022/08/31 12:28:39;;;;;;;79.15;10.50;;;;;;;;;;4972206;28;20094;-47
2022/08/31 12:31:10;;;;;;;65.53;9.38;;;;;;;;;;4965999;28;20058;-48
2022/08/31 12:33:38;;;;;;;67.80;9.07;;;;;;;;;;4993213;28;20046;-49
2022/08/31 12:36:13;;;;;;;62.60;8.93;;;;;;;;;;4990380;28;20034;-48
2022/08/31 12:38:41;;;;;;;83.18;8.82;;;;;;;;;;4979488;28;20026;-49
2022/08/31 12:41:10;;;;;;;60.55;7.90;;;;;;;;;;4985664;28;20389;-47
2022/08/31 12:43:48;;;;;;;53.63;7.07;;;;;;;;;;4985858;28;20120;-46
2022/08/31 12:46:15;;;;;;;31.77;6.15;;;;;;;;;;4973796;28;20421;-50
2022/08/31 12:48:57;;;;;;;36.88;7.25;;;;;;;;;;4975413;28;20041;-47
2022/08/31 12:51:27;;;;;;;65.68;8.48;;;;;;;;;;4990224;28;20040;-48
2022/08/31 12:54:16;;;;;;;45.95;8.45;;;;;;;;;;4982932;28;20050;-46
2022/08/31 12:56:49;;;;;;;45.83;7.50;;;;;;;;;;4978476;28;20426;-46
2022/08/31 12:59:22;;;;;;;55.38;7.90;;;;;;;;;;4975066;28;20026;-56
2022/08/31 13:01:50;;;;;;;65.60;8.98;;;;;;;;;;4985033;28;20022;-53
2022/08/31 13:04:18;;;;;;;49.08;8.82;;;;;;;;;;4986837;28;20030;-50
2022/08/31 13:06:47;;;;;;;42.20;7.50;;;;;;;;;;4985407;28;20022;-50
2022/08/31 13:09:25;;;;;;;40.72;8.25;;;;;;;;;;4974839;28;20066;-52
2022/08/31 13:11:53;;;;;;;34.40;7.03;;;;;;;;;;4974220;28;20022;-49
2022/08/31 13:14:23;;;;;;;42.92;7.82;;;;;;;;;;4973497;28;20027;-49
2022/08/31 13:16:55;;;;;;;48.72;8.95;;;;;;;;;;4974231;28;20114;-48
2022/08/31 13:19:24;;;;;;;40.15;8.10;;;;;;;;;;4973454;28;20105;-48
2022/08/31 13:21:58;;;;;;;43.30;7.75;;;;;;;;;;4973842;28;20130;-48
2022/08/31 13:24:30;;;;;;;37.78;7.20;;;;;;;;;;4974057;28;20110;-50
2022/08/31 13:27:09;;;;;;;37.78;7.53;;;;;;;;;;4973822;28;20425;-47
2022/08/31 13:29:45;;;;;;;39.28;7.72;;;;;;;;;;4992453;28;20051;-53
2022/08/31 13:32:13;;;;;;;42.90;7.03;;;;;;;;;;4993305;28;20022;-50
2022/08/31 13:34:43;;;;;;;48.22;6.78;;;;;;;;;;4990126;28;20030;-44
2022/08/31 13:37:13;;;;;;;33.63;5.65;;;;;;;;;;4992167;28;20022;-43
2022/08/31 13:39:44;;;;;;;52.75;7.18;;;;;;;;;;4992363;28;20034;-45
2022/08/31 13:42:20;;;;;;;54.08;6.93;;;;;;;;;;4993291;28;20034;-54
2022/08/31 13:44:52;;;;;;;54.65;6.93;;;;;;;;;;4993187;28;20545;-53
2022/08/31 13:47:19;;;;;;;;;;;;;;;;;;4992430;28;20030;-52
2022/08/31 13:49:46;;;;;;;48.65;6.97;;;;;;;;;;4969538;28;19914;-45
2022/08/31 13:52:19;;;;;;;48.78;6.68;;;;;;;;;;4993178;28;20060;-50
2022/08/31 13:54:57;;;;;;;82.93;9.15;;;;;;;;;;4993158;28;20028;-44
2022/08/31 13:57:25;;;;;;;69.38;8.48;;;;;;;;;;4983054;28;20066;-48
2022/08/31 13:59:52;;;;;;;82.10;7.40;;;;;;;;;;4973379;28;20114;-44
2022/08/31 14:02:20;;;;;;;56.83;6.47;;;;;;;;;;4973216;28;20038;-44
2022/08/31 14:04:59;;;;;;;56.42;6.85;;;;;;;;;;4972771;28;20047;-45
2022/08/31 14:07:31;;;;;;;69.22;7.22;;;;;;;;;;4972393;28;20114;-45
2022/08/31 14:09:59;;;;;;;68.03;7.43;;;;;;;;;;4992747;28;20046;-46
2022/08/31 14:12:35;;;;;;;70.90;7.22;;;;;;;;;;4992705;28;20037;-46
2022/08/31 14:15:18;;;;;;;82.25;7.47;;;;;;;;;;4977055;28;20026;-46
2022/08/31 14:17:55;;;;;;;113.63;9.23;;;;;;;;;;4995904;28;20034;-48
2022/08/31 14:20:34;;;;;;;102.97;10.32;;;;;;;;;;4996194;28;20097;-47
2022/08/31 14:23:22;;;;;;;86.43;9.27;;;;;;;;;;4996702;28;20488;-47
2022/08/31 14:25:51;;;;;;;86.13;9.13;;;;;;;;;;4996686;28;20513;-47
2022/08/31 14:28:26;;;;;;;66.63;7.90;;;;;;;;;;4995348;28;20041;-44
2022/08/31 14:30:54;;;;;;;65.50;6.47;;;;;;;;;;4971122;28;20366;-45
2022/08/31 14:33:22;;;;;;;66.47;6.93;;;;;;;;;;4994334;28;20026;-44
2022/08/31 14:35:53;;;;;;;55.00;7.03;;;;;;;;;;4995818;28;20038;-43
2022/08/31 14:38:23;;;;;;;73.28;7.20;;;;;;;;;;4995209;28;20118;-44
2022/08/31 14:40:51;;;;;;;58.13;7.38;;;;;;;;;;4995609;28;20041;-45
2022/08/31 14:43:18;;;;;;;52.75;6.25;;;;;;;;;;4986858;28;20042;-45
2022/08/31 14:45:45;;;;;;;77.22;8.48;;;;;;;;;;4986470;28;20092;-49
2022/08/31 14:48:13;;;;;;;50.92;6.63;;;;;;;;;;4985179;28;20042;-47
2022/08/31 14:50:40;;;;;;;58.30;7.25;;;;;;;;;;4976452;28;20477;-44
2022/08/31 14:53:10;;;;;;;81.78;9.05;;;;;;;;;;4975546;28;20026;-45
2022/08/31 14:55:38;;;;;;;60.38;7.07;;;;;;;;;;4976606;28;20429;-44
2022/08/31 14:58:07;;;;;;;66.80;7.50;;;;;;;;;;4975469;28;20033;-45
2022/08/31 15:00:35;;;;;;;53.72;7.30;;;;;;;;;;4976236;28;20114;-50
2022/08/31 15:03:02;;;;;;;45.47;6.80;;;;;;;;;;4994531;28;20133;-49
2022/08/31 15:05:31;;;;;;;41.58;6.55;;;;;;;;;;4994990;28;20396;-46